Time;durP1;ratioP1;P1;durP2;ratioP2;P2;SDS_P1;SDS_P2;PMS_P1;PMS_P2;Temp;Humidity;BMP_temperature;BMP_pressure;BME280_temperature;BME280_humidity;BME280_pressure;Samples;Min_cycle;Max_cycle;Signal;HPM_P1;HPM_P2
2023/03/06 00:02:18;;;;;;;8.53;3.70;;;;;;;2.84;64.56;99366.38;4997412;28;97184;-84
2023/03/06 00:04:44;;;;;;;9.53;3.30;;;;;;;2.76;64.56;99350.94;4988886;27;100853;-83
2023/03/06 00:07:10;;;;;;;7.23;3.23;;;;;;;2.80;64.50;99352.63;5013733;27;101025;-83
2023/03/06 00:09:35;;;;;;;8.20;3.37;;;;;;;2.83;64.35;99360.34;5034847;27;97431;-83
2023/03/06 00:12:01;;;;;;;9.33;3.43;;;;;;;2.79;64.72;99350.88;5019627;27;97522;-84
2023/03/06 00:14:26;;;;;;;11.63;3.57;;;;;;;2.78;64.67;99356.13;5012317;28;100811;-83
2023/03/06 00:16:55;;;;;;;7.80;3.20;;;;;;;2.81;64.40;99358.66;4987164;28;101424;-83
2023/03/06 00:19:21;;;;;;;8.33;3.77;;;;;;;2.72;64.58;99349.31;5039376;27;96776;-84
2023/03/06 00:21:47;;;;;;;7.70;2.97;;;;;;;2.73;64.80;99358.78;5022789;27;98349;-83
2023/03/06 00:24:13;;;;;;;10.40;4.27;;;;;;;2.72;64.41;99354.47;5010114;27;97904;-83
2023/03/06 00:26:40;;;;;;;8.80;4.30;;;;;;;2.67;64.93;99345.94;4997247;27;101548;-84
2023/03/06 00:29:06;;;;;;;8.13;3.60;;;;;;;2.69;65.09;99350.22;5015431;27;97043;-83
2023/03/06 00:31:32;;;;;;;9.93;4.60;;;;;;;2.64;64.89;99349.44;5029780;27;96775;-83
2023/03/06 00:33:57;;;;;;;9.27;3.93;;;;;;;2.64;64.83;99353.75;4988562;27;101097;-84
2023/03/06 00:36:23;;;;;;;6.23;3.80;;;;;;;2.62;64.80;99345.19;4998767;28;101316;-84
2023/03/06 00:38:49;;;;;;;7.03;3.83;;;;;;;2.52;65.33;99334.09;5031581;27;97206;-84
2023/03/06 00:41:16;;;;;;;8.07;3.97;;;;;;;2.51;65.66;99345.34;5000955;28;97010;-84
2023/03/06 00:43:41;;;;;;;5.70;3.47;;;;;;;2.35;66.40;99330.94;5009223;27;97914;-84
2023/03/06 00:46:07;;;;;;;7.27;3.67;;;;;;;2.34;66.22;99329.22;5014889;28;101029;-84
2023/03/06 00:48:33;;;;;;;7.07;4.00;;;;;;;2.45;66.10;99340.28;5001054;27;97107;-83
2023/03/06 00:50:59;;;;;;;8.77;4.60;;;;;;;2.43;66.12;99337.69;5020101;27;97300;-84
2023/03/06 00:53:25;;;;;;;10.77;4.40;;;;;;;2.44;66.25;99335.94;4998591;27;101313;-84
2023/03/06 00:55:51;;;;;;;12.10;4.83;;;;;;;2.39;66.28;99328.28;5004010;27;101148;-83
2023/03/06 00:58:17;;;;;;;11.70;4.37;;;;;;;2.34;66.16;99318.88;5017871;27;97138;-83
2023/03/06 01:00:43;;;;;;;8.37;4.30;;;;;;;2.38;66.33;99303.22;4996570;27;97383;-83
2023/03/06 01:03:09;;;;;;;10.20;4.40;;;;;;;2.39;66.55;99315.31;5009217;27;98107;-84
2023/03/06 01:05:35;;;;;;;8.87;4.73;;;;;;;2.45;65.86;99314.38;4996213;28;101234;-84
2023/03/06 01:08:01;;;;;;;8.37;4.53;;;;;;;2.47;65.94;99307.41;5008334;27;96864;-84
2023/03/06 01:10:27;;;;;;;7.77;5.03;;;;;;;2.36;66.25;99293.81;5017772;27;96886;-84
2023/03/06 01:12:53;;;;;;;9.70;5.00;;;;;;;2.43;66.34;99306.59;5013884;27;101290;-84
2023/03/06 01:15:20;;;;;;;7.93;5.00;;;;;;;2.36;65.87;99288.63;5014155;27;101066;-83
2023/03/06 01:17:45;;;;;;;8.83;5.10;;;;;;;2.37;66.39;99304.13;5017237;27;96840;-84
2023/03/06 01:20:13;;;;;;;10.23;5.50;;;;;;;2.36;66.42;99302.44;5034701;27;97047;-84
2023/03/06 01:22:40;;;;;;;9.90;4.60;;;;;;;2.45;66.51;99304.84;5004636;27;101314;-84
2023/03/06 01:25:06;;;;;;;12.17;5.83;;;;;;;2.47;66.43;99297.03;5017919;27;101712;-83
2023/03/06 01:27:32;;;;;;;8.10;5.60;;;;;;;2.44;66.30;99281.56;5047818;27;97204;-83
2023/03/06 01:29:57;;;;;;;10.80;6.43;;;;;;;2.40;66.67;99288.53;5035675;27;97105;-84
2023/03/06 01:32:23;;;;;;;9.70;5.97;;;;;;;2.40;66.47;99285.94;5011335;27;101559;-84
2023/03/06 01:34:49;;;;;;;11.67;6.70;;;;;;;2.32;66.38;99261.06;5030808;27;101136;-84
2023/03/06 01:37:14;;;;;;;12.97;6.07;;;;;;;2.39;66.44;99263.53;5030965;27;96823;-84
2023/03/06 01:39:40;;;;;;;13.50;6.17;;;;;;;2.41;66.34;99276.44;5054548;27;97001;-84
2023/03/06 01:42:06;;;;;;;12.23;5.53;;;;;;;2.10;66.50;99235.53;5023868;27;101367;-84
2023/03/06 01:44:32;;;;;;;11.10;6.60;;;;;;;2.23;66.96;99272.41;5033412;27;101322;-83
2023/03/06 01:47:01;;;;;;;15.40;7.47;;;;;;;2.29;66.66;99272.31;5032203;27;97255;-84
2023/03/06 01:49:26;;;;;;;12.20;6.73;;;;;;;2.26;67.01;99283.56;5048385;27;97585;-83
2023/03/06 01:52:07;;;;;;;10.33;6.27;;;;;;;2.31;66.74;99261.94;5026072;27;101989;-84
2023/03/06 01:55:09;;;;;;;10.60;6.33;;;;;;;2.37;66.72;99279.97;5033531;27;101484;-84
2023/03/06 01:57:39;;;;;;;9.95;6.15;;;;;;;2.29;66.87;99253.34;4974045;27;97206;-83
2023/03/06 02:00:14;;;;;;;10.10;6.57;;;;;;;2.35;66.72;99267.03;5018993;27;96888;-84
2023/03/06 02:02:43;;;;;;;11.20;6.43;;;;;;;2.26;66.81;99249.06;5019340;27;101496;-84
2023/03/06 02:05:10;;;;;;;8.97;5.87;;;;;;;2.21;67.45;99266.41;5009240;27;101080;-85
2023/03/06 02:07:36;;;;;;;7.23;5.00;;;;;;;2.09;68.19;99253.66;5029215;27;96830;-83
2023/03/06 02:10:04;;;;;;;11.30;6.57;;;;;;;2.06;68.04;99231.28;5031826;27;97380;-83
2023/03/06 02:12:30;;;;;;;10.40;5.90;;;;;;;2.24;67.94;99259.47;5041978;27;100455;-84
2023/03/06 02:14:55;;;;;;;8.40;5.30;;;;;;;2.06;67.82;99214.88;5037082;27;101828;-84
2023/03/06 02:17:22;;;;;;;10.53;6.40;;;;;;;2.24;67.65;99250.81;5048425;27;98214;-84
2023/03/06 02:19:56;;;;;;;9.93;5.40;;;;;;;2.16;68.38;99253.56;5023313;27;97517;-84
2023/03/06 02:22:25;;;;;;;7.57;5.13;;;;;;;2.19;68.00;99244.88;5030774;27;102096;-84
2023/03/06 02:24:52;;;;;;;10.90;5.20;;;;;;;2.25;67.84;99240.44;5018237;27;101112;-83
2023/03/06 02:27:18;;;;;;;10.60;5.87;;;;;;;2.24;68.06;99241.34;5019619;27;97104;-84
2023/03/06 02:29:44;;;;;;;9.53;6.10;;;;;;;2.21;67.56;99238.81;5015844;27;97210;-84
2023/03/06 02:32:10;;;;;;;10.20;6.47;;;;;;;2.31;67.43;99226.53;5041955;27;98421;-84
2023/03/06 02:34:38;;;;;;;10.37;6.63;;;;;;;2.24;67.60;99236.16;5030491;27;97491;-84
2023/03/06 02:37:07;;;;;;;9.00;6.17;;;;;;;2.17;67.42;99223.34;5045100;27;97103;-84
2023/03/06 02:39:38;;;;;;;11.63;7.20;;;;;;;1.98;68.35;99215.88;5032644;27;97110;-83
2023/03/06 02:42:04;;;;;;;11.57;6.93;;;;;;;1.92;68.56;99213.41;5018898;27;101385;-84
2023/03/06 02:44:32;;;;;;;10.40;7.20;;;;;;;1.78;69.28;99213.63;5030421;27;101215;-84
2023/03/06 02:46:57;;;;;;;12.43;7.40;;;;;;;1.89;69.24;99216.06;5013502;27;97220;-83
2023/03/06 02:49:23;;;;;;;16.27;8.30;;;;;;;1.92;68.98;99204.75;5030530;27;97869;-84
2023/03/06 02:51:48;;;;;;;9.60;7.30;;;;;;;1.69;69.44;99200.00;5058314;27;98457;-83
2023/03/06 02:54:17;;;;;;;12.90;6.73;;;;;;;1.77;69.80;99195.53;5029759;27;101258;-84
2023/03/06 02:56:46;;;;;;;14.47;7.80;;;;;;;1.91;69.11;99192.72;5026200;27;97155;-84
2023/03/06 02:59:11;;;;;;;10.90;7.83;;;;;;;1.84;69.15;99167.84;5016513;27;97182;-84
2023/03/06 03:01:37;;;;;;;15.50;8.47;;;;;;;1.66;69.23;99154.31;5026441;27;101583;-83
2023/03/06 03:04:04;;;;;;;12.73;8.40;;;;;;;1.75;69.69;99181.78;5032003;27;100968;-84
2023/03/06 03:06:31;;;;;;;13.33;8.67;;;;;;;1.75;70.02;99195.56;5013467;27;97219;-84
2023/03/06 03:08:57;;;;;;;13.33;9.13;;;;;;;1.76;69.50;99189.50;5012317;27;97107;-84
2023/03/06 03:11:23;;;;;;;12.63;8.47;;;;;;;1.60;70.32;99190.63;5031524;27;101629;-84
2023/03/06 03:13:49;;;;;;;12.03;8.93;;;;;;;1.70;70.18;99181.84;5031505;27;100604;-83
2023/03/06 03:16:20;;;;;;;17.27;8.73;;;;;;;1.74;70.16;99180.91;5033390;27;97078;-81
2023/03/06 03:18:49;;;;;;;16.17;10.07;;;;;;;1.75;70.18;99177.44;5015076;27;97298;-84
2023/03/06 03:21:18;;;;;;;14.30;8.77;;;;;;;1.51;70.58;99152.84;5018807;27;101997;-83
2023/03/06 03:23:45;;;;;;;15.43;9.40;;;;;;;1.63;71.05;99179.34;5034860;27;101070;-84
2023/03/06 03:26:17;;;;;;;15.87;9.77;;;;;;;1.36;70.95;99112.53;5029184;27;96871;-84
2023/03/06 03:28:48;;;;;;;13.07;8.33;;;;;;;1.68;71.28;99173.22;5020569;27;97207;-83
2023/03/06 03:31:16;;;;;;;15.10;8.93;;;;;;;1.84;70.64;99173.00;5016638;27;101632;-83
2023/03/06 03:33:42;;;;;;;15.10;9.23;;;;;;;1.77;70.61;99161.88;5022559;27;101666;-83
2023/03/06 03:36:08;;;;;;;13.83;9.20;;;;;;;1.73;71.02;99161.09;5018793;27;96787;-83
2023/03/06 03:38:38;;;;;;;12.80;9.47;;;;;;;1.77;71.04;99159.28;5048030;27;96972;-83
2023/03/06 03:41:04;;;;;;;12.80;9.10;;;;;;;1.80;71.17;99157.53;5054557;27;101287;-84
2023/03/06 03:43:30;;;;;;;13.97;9.27;;;;;;;1.79;71.04;99150.63;5055321;27;101518;-85
2023/03/06 03:45:57;;;;;;;13.10;9.33;;;;;;;1.75;71.65;99161.91;5020147;27;96964;-85
2023/03/06 03:48:23;;;;;;;15.17;9.37;;;;;;;1.64;72.25;99137.97;5019695;27;97594;-83
2023/03/06 03:50:48;;;;;;;13.07;9.63;;;;;;;1.75;72.22;99146.41;5022098;27;101173;-84
2023/03/06 03:53:14;;;;;;;13.13;9.13;;;;;;;1.77;72.04;99143.75;5018396;27;99270;-84
2023/03/06 03:55:41;;;;;;;14.30;9.03;;;;;;;1.75;71.99;99154.16;5037160;27;96690;-83
2023/03/06 03:58:06;;;;;;;11.83;9.03;;;;;;;1.64;72.06;99143.13;5009650;27;97396;-84
2023/03/06 04:00:32;;;;;;;12.17;9.03;;;;;;;1.69;72.82;99146.50;5045018;27;101391;-83
2023/03/06 04:03:07;;;;;;;13.00;8.60;;;;;;;1.60;72.47;99118.22;5047760;27;97900;-84
2023/03/06 04:05:36;;;;;;;15.90;9.27;;;;;;;1.68;73.15;99142.19;5035230;27;97145;-84
2023/03/06 04:08:05;;;;;;;13.70;9.80;;;;;;;1.73;72.46;99132.63;5035694;27;97576;-84
2023/03/06 04:10:33;;;;;;;14.43;9.63;;;;;;;1.62;72.55;99119.00;5018634;27;101905;-84
2023/03/06 04:12:59;;;;;;;13.57;8.70;;;;;;;1.56;73.19;99122.56;5033325;27;101829;-83
2023/03/06 04:15:26;;;;;;;16.00;9.13;;;;;;;1.60;73.19;99128.56;5034523;27;96759;-84
2023/03/06 04:17:51;;;;;;;13.40;9.63;;;;;;;1.46;72.86;99074.47;5045913;27;96800;-83
2023/03/06 04:20:21;;;;;;;18.13;9.83;;;;;;;1.45;73.11;99090.84;5024706;27;101844;-84
2023/03/06 04:22:47;;;;;;;19.93;10.77;;;;;;;1.63;73.20;99112.09;5059356;27;101432;-84
2023/03/06 04:25:13;;;;;;;20.97;11.97;;;;;;;1.75;72.95;99115.34;5040391;27;96894;-83
2023/03/06 04:27:39;;;;;;;31.63;19.20;;;;;;;1.67;72.72;99108.59;5016254;27;97332;-83
2023/03/06 04:30:06;;;;;;;30.00;16.23;;;;;;;1.73;72.80;99106.75;5017444;27;101321;-84
2023/03/06 04:32:33;;;;;;;28.73;16.83;;;;;;;1.72;72.81;99109.38;5032199;27;99473;-83
2023/03/06 04:34:59;;;;;;;25.40;15.37;;;;;;;1.76;73.14;99108.44;5023691;27;97045;-84
2023/03/06 04:37:29;;;;;;;26.60;15.77;;;;;;;1.79;73.30;99103.19;5023742;27;97449;-86
2023/03/06 04:39:57;;;;;;;33.27;17.80;;;;;;;1.79;73.04;99095.44;5047741;27;100704;-85
2023/03/06 04:42:23;;;;;;;30.93;17.40;;;;;;;1.88;72.67;99097.00;5037188;27;100467;-83
2023/03/06 04:44:48;;;;;;;25.93;15.00;;;;;;;1.80;72.87;99095.44;5028084;27;96805;-84
2023/03/06 04:47:14;;;;;;;24.33;14.97;;;;;;;1.73;73.22;99080.03;5028843;27;96792;-83
2023/03/06 04:49:39;;;;;;;23.43;14.53;;;;;;;1.79;73.52;99082.50;5016571;27;102406;-83
2023/03/06 04:52:05;;;;;;;23.07;13.07;;;;;;;1.91;72.90;99084.00;5012890;27;100980;-83
2023/03/06 04:54:31;;;;;;;19.50;12.33;;;;;;;1.91;72.86;99086.59;5016998;27;96791;-84
2023/03/06 04:56:57;;;;;;;18.57;10.40;;;;;;;1.72;73.00;99044.69;5011839;27;97220;-84
2023/03/06 04:59:22;;;;;;;15.27;10.17;;;;;;;2.09;72.48;99093.16;5025547;27;101454;-84
2023/03/06 05:01:48;;;;;;;17.00;9.87;;;;;;;2.03;72.50;99073.41;5024561;27;101695;-83
2023/03/06 05:04:13;;;;;;;17.47;10.27;;;;;;;2.09;72.67;99087.97;5035763;27;96960;-83
2023/03/06 05:06:39;;;;;;;13.47;9.23;;;;;;;2.09;72.78;99085.41;5014864;27;97395;-83
2023/03/06 05:09:04;;;;;;;12.97;10.10;;;;;;;2.22;73.04;99086.88;5017816;27;100984;-83
2023/03/06 05:11:30;;;;;;;13.27;9.40;;;;;;;2.16;73.31;99072.31;5017347;27;101212;-84
2023/03/06 05:13:55;;;;;;;13.63;10.10;;;;;;;2.17;73.26;99078.34;5002478;27;96745;-84
2023/03/06 05:16:21;;;;;;;13.57;9.53;;;;;;;2.26;73.44;99084.19;5004728;27;97268;-84
2023/03/06 05:18:47;;;;;;;13.80;8.60;;;;;;;2.32;73.15;99085.78;5032220;27;101222;-83
2023/03/06 05:21:12;;;;;;;12.13;7.83;;;;;;;2.36;73.23;99078.84;5027801;27;99083;-83
2023/03/06 05:23:38;;;;;;;10.60;8.10;;;;;;;2.32;73.21;99080.63;5043053;27;97295;-83
2023/03/06 05:26:07;;;;;;;12.27;7.67;;;;;;;2.39;73.31;99084.81;5041875;27;97174;-83
2023/03/06 05:28:32;;;;;;;12.00;8.00;;;;;;;2.34;73.44;99076.25;5029371;27;101256;-84
2023/03/06 05:30:58;;;;;;;10.60;7.83;;;;;;;2.40;73.21;99072.69;5018842;27;101085;-83
2023/03/06 05:33:23;;;;;;;9.80;8.17;;;;;;;2.47;72.80;99082.03;5010887;27;96973;-84
2023/03/06 05:35:49;;;;;;;12.13;8.20;;;;;;;2.52;72.72;99082.78;5027858;27;97268;-84
2023/03/06 05:38:15;;;;;;;10.93;8.07;;;;;;;2.51;72.92;99075.06;5031236;27;98176;-83
2023/03/06 05:40:42;;;;;;;10.03;7.73;;;;;;;2.37;72.75;99052.88;5024517;27;101443;-84
2023/03/06 05:43:09;;;;;;;10.13;7.80;;;;;;;2.53;72.67;99070.69;5018973;27;96871;-83
2023/03/06 05:45:34;;;;;;;16.27;9.40;;;;;;;2.63;72.53;99083.41;5049130;27;97798;-83
2023/03/06 05:48:01;;;;;;;12.37;8.53;;;;;;;2.59;72.42;99065.38;5016139;27;101340;-83
2023/03/06 05:50:26;;;;;;;11.17;8.03;;;;;;;2.64;72.31;99079.09;5014424;27;101037;-84
2023/03/06 05:52:52;;;;;;;10.83;7.57;;;;;;;2.49;72.10;99044.00;5019710;27;97267;-83
2023/03/06 05:55:19;;;;;;;10.53;7.37;;;;;;;2.68;72.12;99068.63;5036268;27;97499;-83
2023/03/06 05:57:45;;;;;;;15.60;7.90;;;;;;;2.77;71.82;99079.69;5016288;27;100998;-83
2023/03/06 06:00:12;;;;;;;13.30;8.30;;;;;;;2.78;71.32;99071.88;5026653;27;98316;-84
2023/03/06 06:02:43;;;;;;;10.13;7.88;;;;;;;2.79;71.37;99057.16;5033030;27;97166;-83
2023/03/06 06:05:09;;;;;;;10.23;7.20;;;;;;;2.86;71.35;99064.78;5031391;27;96799;-83
2023/03/06 06:07:35;;;;;;;10.30;7.73;;;;;;;2.88;71.43;99062.13;5009730;27;101263;-83
2023/03/06 06:10:01;;;;;;;11.03;8.53;;;;;;;2.84;70.59;99063.94;5007480;27;101099;-83
2023/03/06 06:12:27;;;;;;;10.00;6.80;;;;;;;2.98;70.82;99078.34;5024893;27;97091;-85
2023/03/06 06:14:53;;;;;;;10.30;7.30;;;;;;;2.97;70.64;99068.84;5025878;27;97090;-84
2023/03/06 06:17:18;;;;;;;7.40;6.20;;;;;;;2.99;70.63;99074.84;5033131;27;101625;-86
2023/03/06 06:19:44;;;;;;;8.53;6.33;;;;;;;3.03;70.33;99074.75;5016044;27;101883;-84
2023/03/06 06:22:10;;;;;;;8.27;6.87;;;;;;;2.95;70.08;99058.53;5032859;27;96752;-86
2023/03/06 06:24:36;;;;;;;7.37;6.20;;;;;;;3.10;69.67;99084.09;5034265;27;97133;-87
2023/03/06 06:27:01;;;;;;;9.77;6.17;;;;;;;3.14;69.79;99079.69;5011457;27;100335;-87
2023/03/06 06:29:28;;;;;;;9.20;6.83;;;;;;;3.17;69.50;99084.78;4991880;28;96815;-89
2023/03/06 06:31:54;;;;;;;9.73;6.50;;;;;;;3.20;69.71;99096.84;5007930;27;97127;-87
2023/03/06 06:34:21;;;;;;;9.67;6.60;;;;;;;3.02;69.30;99065.25;5000482;27;97255;-94
2023/03/06 06:36:46;;;;;;;8.37;6.50;;;;;;;3.04;69.30;99060.91;5012659;27;98484;-88
2023/03/06 06:39:17;;;;;;;9.10;6.30;;;;;;;3.28;69.14;99093.19;4988789;27;99870;-87
2023/03/06 06:41:43;;;;;;;14.93;7.77;;;;;;;3.19;68.71;99070.06;5010122;27;97231;-93
2023/03/06 06:44:13;;;;;;;10.43;7.20;;;;;;;3.29;69.13;99092.31;5007081;28;96911;-96
2023/03/06 06:46:39;;;;;;;12.87;7.43;;;;;;;2.88;68.41;99031.03;5014386;27;99426;-94
2023/03/06 06:49:08;;;;;;;10.90;7.47;;;;;;;2.89;68.04;99023.22;4991347;28;101237;-96
2023/03/06 06:51:37;;;;;;;17.30;8.67;;;;;;;3.23;68.45;99074.31;5008885;27;97056;-95
2023/03/06 06:54:03;;;;;;;11.17;8.10;;;;;;;3.15;68.15;99056.31;5011649;28;97269;-96
2023/03/06 06:56:28;;;;;;;12.37;7.90;;;;;;;3.29;67.87;99070.72;5004352;27;98243;-96
2023/03/06 06:58:55;;;;;;;10.53;7.53;;;;;;;3.25;67.76;99063.88;5001372;27;101080;-96
2023/03/06 07:01:24;;;;;;;13.60;8.50;;;;;;;2.96;67.50;99034.31;4986001;27;96786;-94
2023/03/06 07:03:50;;;;;;;13.63;8.10;;;;;;;3.12;67.11;99033.06;4999094;27;97375;-96
2023/03/06 07:06:18;;;;;;;12.80;7.93;;;;;;;3.19;66.79;99044.13;4998452;27;101313;-96
2023/03/06 07:08:44;;;;;;;12.77;9.43;;;;;;;3.24;66.16;99038.84;5008341;27;100705;-96
2023/03/06 07:11:13;;;;;;;14.97;9.50;;;;;;;3.25;66.15;99038.78;5004666;27;96818;-96
2023/03/06 07:13:44;;;;;;;14.73;10.37;;;;;;;3.15;66.13;99020.00;4995964;28;97363;-96
2023/03/06 07:16:12;;;;;;;15.07;9.93;;;;;;;3.40;65.90;99040.13;5003585;27;100987;-96
2023/03/06 07:18:40;;;;;;;14.97;10.83;;;;;;;3.23;65.73;99019.84;5009666;28;101102;-96
2023/03/06 07:21:06;;;;;;;17.47;11.67;;;;;;;3.60;65.65;99069.03;5009798;27;96805;-96
2023/03/06 07:23:32;;;;;;;16.33;11.23;;;;;;;3.54;65.67;99047.59;5001288;27;96755;-96
2023/03/06 07:25:58;;;;;;;16.33;12.13;;;;;;;3.38;65.58;99016.84;5027008;27;101412;-96
2023/03/06 07:28:26;;;;;;;19.03;12.30;;;;;;;3.45;65.06;99020.13;5020171;27;101128;-95
2023/03/06 07:30:54;;;;;;;16.33;11.43;;;;;;;3.75;65.01;99073.00;5032415;27;97019;-94
2023/03/06 07:33:20;;;;;;;16.27;11.90;;;;;;;3.62;64.94;99038.72;5031000;27;97047;-88
2023/03/06 07:35:46;;;;;;;18.97;12.97;;;;;;;3.82;64.82;99084.91;5027483;27;101313;-89
2023/03/06 07:38:13;;;;;;;16.93;11.30;;;;;;;3.92;64.63;99085.50;5034950;27;101003;-88
2023/03/06 07:40:38;;;;;;;16.27;12.43;;;;;;;4.11;64.51;99103.22;5039954;27;96778;-89
2023/03/06 07:43:04;;;;;;;13.73;11.40;;;;;;;4.17;64.59;99106.50;5006039;27;97229;-88
2023/03/06 07:45:36;;;;;;;16.95;12.45;;;;;;;4.12;63.88;99097.97;5022415;27;100241;-89
2023/03/06 07:48:01;;;;;;;14.37;11.33;;;;;;;4.14;63.64;99097.94;5020018;27;101617;-87
2023/03/06 07:50:27;;;;;;;15.73;11.63;;;;;;;4.22;63.63;99111.56;5032714;27;97102;-86
2023/03/06 07:52:53;;;;;;;16.00;12.33;;;;;;;4.27;63.50;99109.69;5032077;27;97060;-89
2023/03/06 07:55:19;;;;;;;17.47;11.83;;;;;;;4.37;62.88;99105.94;5036543;27;101209;-89
2023/03/06 07:57:44;;;;;;;15.83;11.53;;;;;;;4.48;62.78;99108.22;5047346;27;98247;-96
2023/03/06 08:00:14;;;;;;;18.87;13.53;;;;;;;4.63;62.38;99113.00;5018800;27;96946;-96
2023/03/06 08:02:41;;;;;;;16.80;12.43;;;;;;;4.59;61.88;99108.75;5052144;27;97259;-94
2023/03/06 08:05:08;;;;;;;14.40;10.90;;;;;;;4.67;62.09;99106.81;5038552;27;101610;-89
2023/03/06 08:07:34;;;;;;;16.97;12.13;;;;;;;4.76;61.65;99103.09;5021082;27;99778;-88
2023/03/06 08:10:00;;;;;;;18.57;12.37;;;;;;;4.56;61.92;99066.44;5029369;27;96748;-90
2023/03/06 08:12:26;;;;;;;16.50;11.50;;;;;;;4.60;61.55;99079.28;5046865;27;96829;-89
2023/03/06 08:14:51;;;;;;;15.30;11.57;;;;;;;4.84;61.42;99111.50;5009666;27;100991;-86
2023/03/06 08:17:17;;;;;;;15.67;10.90;;;;;;;4.89;60.61;99100.97;5030481;27;100301;-89
2023/03/06 08:19:43;;;;;;;15.30;11.70;;;;;;;4.83;60.82;99095.94;5019808;27;96822;-88
2023/03/06 08:22:09;;;;;;;15.87;10.80;;;;;;;4.96;61.11;99103.34;5036820;27;96958;-90
2023/03/06 08:24:35;;;;;;;14.17;10.23;;;;;;;4.94;60.53;99083.47;5033027;27;101148;-89
2023/03/06 08:27:02;;;;;;;14.77;9.67;;;;;;;5.10;60.28;99073.47;5013902;27;101589;-88
2023/03/06 08:29:27;;;;;;;12.63;10.03;;;;;;;5.31;59.73;99090.13;5038035;27;97004;-86
2023/03/06 08:31:53;;;;;;;14.63;10.43;;;;;;;5.31;59.66;99084.91;5039676;27;97346;-87
2023/03/06 08:34:20;;;;;;;14.83;9.67;;;;;;;5.48;59.48;99093.03;5034489;27;100502;-86
2023/03/06 08:36:46;;;;;;;21.30;13.20;;;;;;;5.62;58.93;99087.38;5032624;27;101660;-86
2023/03/06 08:39:12;;;;;;;14.07;9.87;;;;;;;5.67;58.66;99101.94;5008387;27;97216;-86
2023/03/06 08:41:39;;;;;;;13.03;9.83;;;;;;;5.63;57.97;99086.47;5028260;27;97328;-88
2023/03/06 08:44:05;;;;;;;18.13;10.63;;;;;;;5.67;58.23;99101.94;5021064;27;99620;-87
2023/03/06 08:46:32;;;;;;;12.43;10.13;;;;;;;5.74;58.44;99099.13;5019137;27;100398;-87
2023/03/06 08:48:58;;;;;;;15.27;10.13;;;;;;;5.84;58.14;99100.50;5026154;27;97360;-91
2023/03/06 08:51:24;;;;;;;12.93;9.70;;;;;;;5.80;58.13;99078.09;5025694;27;96900;-90
2023/03/06 08:53:50;;;;;;;11.30;8.97;;;;;;;5.72;57.11;99064.47;5016296;27;101296;-88
2023/03/06 08:56:18;;;;;;;12.70;9.57;;;;;;;6.00;57.50;99093.91;5031631;27;101428;-91
2023/03/06 08:58:44;;;;;;;14.10;10.47;;;;;;;6.12;57.30;99101.28;5026458;27;96697;-88
2023/03/06 09:01:18;;;;;;;9.97;8.37;;;;;;;6.26;56.10;99100.81;5031840;27;96665;-88
2023/03/06 09:03:44;;;;;;;11.97;9.03;;;;;;;6.23;56.68;99082.69;5019809;27;101276;-87
2023/03/06 09:06:09;;;;;;;14.00;9.80;;;;;;;6.27;56.02;99081.66;5036089;27;99794;-81
2023/03/06 09:08:35;;;;;;;12.50;8.53;;;;;;;6.34;55.82;99079.66;5045068;27;97357;-84
2023/03/06 09:11:01;;;;;;;11.13;8.10;;;;;;;6.71;55.49;99092.19;5043964;27;96792;-87
2023/03/06 09:13:26;;;;;;;11.57;7.73;;;;;;;6.88;54.78;99103.75;5026786;27;101751;-87
2023/03/06 09:15:52;;;;;;;11.73;8.83;;;;;;;7.29;55.08;99096.06;5009393;27;102176;-87
2023/03/06 09:18:17;;;;;;;21.83;12.80;;;;;;;7.48;54.04;99092.66;5035342;27;97219;-86
2023/03/06 09:20:43;;;;;;;11.88;8.55;;;;;;;7.48;52.65;99083.97;5016819;27;97183;-87
2023/03/06 09:23:09;;;;;;;18.20;10.85;;;;;;;7.45;53.20;99100.63;5009133;27;101673;-87
2023/03/06 09:25:34;;;;;;;12.38;8.35;;;;;;;7.72;53.00;99095.16;5042756;27;98024;-86
2023/03/06 09:28:00;;;;;;;11.13;8.45;;;;;;;7.80;52.49;99089.63;5024872;27;96775;-86
2023/03/06 09:30:25;;;;;;;12.13;8.95;;;;;;;8.01;52.06;99083.47;5035308;27;96978;-86
2023/03/06 09:32:51;;;;;;;11.48;8.60;;;;;;;8.09;51.51;99088.38;5026880;27;97915;-86
2023/03/06 09:35:17;;;;;;;11.85;8.00;;;;;;;8.17;51.36;99086.25;5029730;27;98325;-85
2023/03/06 09:37:44;;;;;;;15.48;10.20;;;;;;;8.23;51.79;99065.09;5026550;27;97281;-85
2023/03/06 09:40:20;;;;;;;12.55;8.95;;;;;;;8.72;51.18;99094.28;5024993;27;97229;-85
2023/03/06 09:42:46;;;;;;;10.77;9.00;;;;;;;8.74;50.19;99079.38;5017351;27;101771;-86
2023/03/06 09:45:12;;;;;;;10.07;7.15;;;;;;;8.66;50.33;99086.72;5043719;27;97634;-87
2023/03/06 09:47:56;;;;;;;10.85;7.80;;;;;;;8.76;50.55;99089.78;5015265;27;97463;-86
2023/03/06 09:50:37;;;;;;;10.95;8.02;;;;;;;8.93;49.86;99081.13;5024448;27;96866;-86
2023/03/06 09:53:35;;;;;;;11.75;9.35;;;;;;;8.98;49.81;99087.00;5026626;27;98100;-87
2023/03/06 09:56:05;;;;;;;11.02;8.68;;;;;;;8.85;50.28;99068.41;4992410;27;101388;-86
2023/03/06 09:58:32;;;;;;;10.38;8.00;;;;;;;8.88;50.70;99078.75;5019212;27;96829;-85
2023/03/06 10:01:01;;;;;;;9.00;7.43;;;;;;;9.09;49.88;99073.41;5036170;27;96807;-86
2023/03/06 10:04:37;;;;;;;8.25;7.25;;;;;;;9.11;49.09;99074.19;5060351;27;98346;-87
2023/03/06 10:07:19;;;;;;;7.63;6.47;;;;;;;8.91;48.83;99070.75;4924385;28;101692;-87
2023/03/06 10:09:53;;;;;;;7.90;6.70;;;;;;;9.08;48.59;99069.97;4935981;28;97964;-89
2023/03/06 10:12:27;;;;;;;10.40;6.78;;;;;;;8.94;48.27;99078.44;4929776;28;98144;-87
2023/03/06 10:15:01;;;;;;;9.10;6.88;;;;;;;8.63;48.46;99054.63;4948591;28;101680;-87
2023/03/06 10:17:34;;;;;;;12.10;7.88;;;;;;;8.95;48.48;99069.66;4952271;28;100245;-87
2023/03/06 10:20:00;;;;;;;14.68;8.25;;;;;;;8.85;48.87;99073.66;4946573;28;97029;-88
2023/03/06 10:22:41;;;;;;;11.60;7.38;;;;;;;8.71;49.28;99065.59;4958421;28;96818;-87
2023/03/06 10:25:27;;;;;;;11.52;7.30;;;;;;;8.81;49.05;99069.47;4962777;28;98607;-88
2023/03/06 10:28:11;;;;;;;7.95;7.07;;;;;;;8.86;49.57;99064.88;4932774;28;101468;-87
2023/03/06 10:31:00;;;;;;;15.05;8.10;;;;;;;8.93;49.66;99029.66;4927790;28;97278;-86
2023/03/06 10:33:50;;;;;;;10.98;8.38;;;;;;;9.15;49.70;99047.78;4952008;28;96862;-86
2023/03/06 10:36:17;;;;;;;14.50;7.57;;;;;;;8.73;48.58;99046.28;4950989;28;99980;-87
2023/03/06 10:38:44;;;;;;;10.27;6.93;;;;;;;8.71;50.25;99050.75;5008443;27;102149;-86
2023/03/06 10:41:09;;;;;;;11.52;7.72;;;;;;;8.68;49.96;99035.19;5014935;27;96723;-88
2023/03/06 10:44:05;;;;;;;12.43;7.60;;;;;;;8.80;49.86;99052.06;5029397;27;97367;-87
2023/03/06 10:46:41;;;;;;;9.38;7.90;;;;;;;8.68;49.47;99044.81;5033796;27;101335;-86
2023/03/06 10:49:35;;;;;;;11.25;7.57;;;;;;;8.58;49.50;99040.00;5003610;27;100601;-87
2023/03/06 10:52:01;;;;;;;9.32;7.22;;;;;;;8.63;50.19;99041.56;5021834;27;96803;-87
2023/03/06 10:54:28;;;;;;;10.40;6.97;;;;;;;8.54;50.33;99030.59;5042689;27;96884;-87
2023/03/06 10:56:54;;;;;;;11.32;7.30;;;;;;;8.46;49.79;99024.00;5035312;27;100660;-87
2023/03/06 10:59:24;;;;;;;11.07;7.25;;;;;;;8.37;50.14;99041.78;5009607;27;101362;-88
2023/03/06 11:02:21;;;;;;;15.27;8.18;;;;;;;8.25;49.75;99023.19;5022255;27;97722;-87
2023/03/06 11:04:52;;;;;;;17.63;8.05;;;;;;;8.31;49.91;99020.31;5017034;27;96827;-86
2023/03/06 11:07:23;;;;;;;10.85;7.70;;;;;;;8.39;50.38;99013.84;4999930;27;101903;-86
2023/03/06 11:10:07;;;;;;;16.80;7.63;;;;;;;8.36;49.69;98995.63;5001880;27;101401;-87
2023/03/06 11:12:38;;;;;;;15.48;7.78;;;;;;;8.27;50.19;98993.44;5576963;22;99845;-87
2023/03/06 11:15:23;;;;;;;25.35;10.63;;;;;;;8.31;50.22;99009.84;4965094;28;98017;-88
2023/03/06 11:18:03;;;;;;;13.05;8.38;;;;;;;8.26;49.92;99004.84;4982236;28;101486;-87
2023/03/06 11:20:45;;;;;;;14.43;7.75;;;;;;;8.34;49.72;99007.94;5017893;28;100859;-91
2023/03/06 11:23:42;;;;;;;13.27;8.38;;;;;;;8.21;49.90;99013.81;5033273;28;96810;-91
2023/03/06 11:26:16;;;;;;;13.48;7.47;;;;;;;8.22;49.48;99012.88;4996860;28;96764;-90
2023/03/06 11:29:09;;;;;;;11.35;7.00;;;;;;;8.00;49.98;99013.84;4977266;28;101125;-86
2023/03/06 11:32:07;;;;;;;12.15;7.10;;;;;;;7.86;50.37;99009.22;4975494;28;101439;-87
2023/03/06 11:34:36;;;;;;;10.73;6.70;;;;;;;8.03;50.57;99002.38;4989818;28;96764;-87
2023/03/06 11:37:09;;;;;;;12.85;7.20;;;;;;;8.12;48.88;99010.69;4982802;28;96767;-90